createdAt,value
2023-03-21T00:01:58.972Z,1.42
2023-03-21T00:04:33.163Z,1.40
2023-03-21T00:07:06.736Z,1.38
2023-03-21T00:09:34.923Z,1.36
2023-03-21T00:12:09.948Z,1.35
2023-03-21T00:14:40.176Z,1.36
2023-03-21T00:17:10.942Z,1.35
2023-03-21T00:19:39.200Z,1.32
2023-03-21T00:22:09.133Z,1.27
2023-03-21T00:24:37.631Z,1.24
2023-03-21T00:29:57.096Z,1.12
2023-03-21T00:32:27.423Z,1.06
2023-03-21T00:35:16.478Z,1.02
2023-03-21T00:37:49.036Z,0.97
2023-03-21T00:40:26.772Z,0.95
2023-03-21T00:42:59.318Z,0.92
2023-03-21T00:45:27.996Z,0.91
2023-03-21T00:47:56.653Z,0.86
2023-03-21T00:50:27.833Z,0.80
2023-03-21T00:52:58.383Z,0.73
2023-03-21T00:55:28.105Z,0.60
2023-03-21T00:58:02.069Z,0.58
2023-03-21T01:00:30.948Z,0.59
2023-03-21T01:03:17.447Z,0.58
2023-03-21T01:06:07.588Z,0.49
2023-03-21T01:08:51.156Z,0.44
2023-03-21T01:11:23.415Z,0.45
2023-03-21T01:13:57.928Z,0.50
2023-03-21T01:16:30.526Z,0.53
2023-03-21T01:18:59.848Z,0.51
2023-03-21T01:21:28.229Z,0.47
2023-03-21T01:23:56.337Z,0.45
2023-03-21T01:26:24.410Z,0.43
2023-03-21T01:28:53.002Z,0.46
2023-03-21T01:31:21.370Z,0.50
2023-03-21T01:33:49.771Z,0.55
2023-03-21T01:36:22.895Z,0.57
2023-03-21T01:38:52.926Z,0.57
2023-03-21T01:41:43.991Z,0.56
2023-03-21T01:44:54.322Z,0.56
2023-03-21T01:47:23.233Z,0.56
2023-03-21T01:50:18.101Z,0.59
2023-03-21T01:53:13.397Z,0.62
2023-03-21T01:55:43.072Z,0.66
2023-03-21T01:58:24.491Z,0.68
2023-03-21T02:01:07.467Z,0.68
2023-03-21T02:03:50.763Z,0.65
2023-03-21T02:06:58.617Z,0.62
2023-03-21T02:09:48.489Z,0.57
2023-03-21T02:12:25.977Z,0.52
2023-03-21T02:14:57.330Z,0.45
2023-03-21T02:18:03.388Z,0.39
2023-03-21T02:21:07.709Z,0.37
2023-03-21T02:24:13.726Z,0.35
2023-03-21T02:27:04.930Z,0.34
2023-03-21T02:30:26.478Z,0.33
2023-03-21T02:33:03.085Z,0.26
2023-03-21T02:35:56.703Z,0.22
2023-03-21T02:38:31.608Z,0.18
2023-03-21T02:41:17.934Z,0.14
2023-03-21T02:43:52.637Z,0.15
2023-03-21T02:46:24.309Z,0.19
2023-03-21T02:49:03.619Z,0.21
2023-03-21T02:51:32.203Z,0.24
2023-03-21T02:56:56.129Z,0.29
2023-03-21T02:59:25.473Z,0.31
2023-03-21T03:01:55.205Z,0.30
2023-03-21T03:04:29.476Z,0.34
2023-03-21T03:07:12.336Z,0.37
2023-03-21T03:09:44.005Z,0.40
2023-03-21T03:12:25.454Z,0.44
2023-03-21T03:15:17.905Z,0.47
2023-03-21T03:17:55.689Z,0.50
2023-03-21T03:20:44.596Z,0.52
2023-03-21T03:23:21.363Z,0.55
2023-03-21T03:25:52.604Z,0.55
2023-03-21T03:28:25.176Z,0.53
2023-03-21T03:31:08.085Z,0.56
2023-03-21T03:33:42.064Z,0.59
2023-03-21T03:36:21.430Z,0.60
2023-03-21T03:38:53.644Z,0.55
2023-03-21T03:41:26.077Z,0.49
2023-03-21T03:43:59.095Z,0.50
2023-03-21T03:46:36.571Z,0.49
2023-03-21T03:49:08.207Z,0.48
2023-03-21T03:52:04.806Z,0.46
2023-03-21T03:54:47.531Z,0.45
2023-03-21T03:57:16.250Z,0.46
2023-03-21T03:59:46.550Z,0.44
2023-03-21T04:02:27.456Z,0.50
2023-03-21T04:04:57.893Z,0.58
2023-03-21T04:07:27.999Z,0.68
2023-03-21T04:10:01.339Z,0.74
2023-03-21T04:12:30.150Z,0.81
2023-03-21T04:15:19.484Z,0.88
2023-03-21T04:17:51.575Z,0.91
2023-03-21T04:20:34.201Z,0.93
2023-03-21T04:23:06.765Z,0.98
2023-03-21T04:25:36.994Z,0.93
2023-03-21T04:28:07.010Z,0.94
2023-03-21T04:31:03.784Z,1.02
2023-03-21T04:33:44.502Z,1.10
2023-03-21T04:36:25.111Z,1.17
2023-03-21T04:38:55.084Z,1.27
2023-03-21T04:41:23.400Z,1.35
2023-03-21T04:43:56.044Z,1.41
2023-03-21T04:46:24.740Z,1.47
2023-03-21T04:48:53.036Z,1.54
2023-03-21T04:51:21.209Z,1.64
2023-03-21T04:53:49.678Z,1.74
2023-03-21T04:56:20.630Z,1.83
2023-03-21T04:58:48.928Z,1.86
2023-03-21T05:01:20.238Z,1.94
2023-03-21T05:03:52.767Z,2.04
2023-03-21T05:06:21.265Z,2.14
2023-03-21T05:08:51.541Z,2.26
2023-03-21T05:11:20.334Z,2.38
2023-03-21T05:13:49.279Z,2.51
2023-03-21T05:16:17.422Z,2.66
2023-03-21T05:18:50.801Z,2.80
2023-03-21T05:21:20.518Z,2.90
2023-03-21T05:23:55.053Z,2.99
2023-03-21T05:26:24.827Z,3.13
2023-03-21T05:29:09.205Z,3.29
2023-03-21T05:31:37.847Z,3.44
2023-03-21T05:34:08.728Z,3.56
2023-03-21T05:36:40.176Z,3.70
2023-03-21T05:39:09.697Z,3.86
2023-03-21T05:41:41.693Z,3.97
2023-03-21T05:44:10.306Z,4.07
2023-03-21T05:46:40.007Z,4.17
2023-03-21T05:49:12.480Z,4.26
2023-03-21T05:51:42.458Z,4.29
2023-03-21T05:54:16.806Z,4.36
2023-03-21T05:56:48.382Z,4.44
2023-03-21T05:59:26.230Z,4.56
2023-03-21T06:01:55.104Z,4.61
2023-03-21T06:04:24.364Z,4.71
2023-03-21T06:06:53.983Z,4.83
2023-03-21T06:09:26.657Z,4.90
2023-03-21T06:11:58.700Z,4.99
2023-03-21T06:14:27.182Z,5.06
2023-03-21T06:17:25.549Z,5.13
2023-03-21T06:19:58.537Z,5.22
2023-03-21T06:22:33.570Z,5.34
2023-03-21T06:25:04.144Z,5.46
2023-03-21T06:27:32.745Z,5.67
2023-03-21T06:30:08.766Z,5.86
2023-03-21T06:32:44.854Z,5.93
2023-03-21T06:35:15.645Z,5.92
2023-03-21T06:37:46.279Z,5.84
2023-03-21T06:40:15.180Z,5.76
2023-03-21T06:42:43.739Z,5.84
2023-03-21T06:45:12.549Z,6.01
2023-03-21T06:47:41.870Z,6.21
2023-03-21T06:50:22.984Z,6.32
2023-03-21T06:52:53.424Z,6.37
2023-03-21T06:55:26.299Z,6.38
2023-03-21T06:57:56.285Z,6.40
2023-03-21T07:00:27.650Z,6.45
2023-03-21T07:02:56.924Z,6.54
2023-03-21T07:05:27.579Z,6.63
2023-03-21T07:07:56.464Z,6.69
2023-03-21T07:10:25.767Z,6.70
2023-03-21T07:13:00.399Z,6.65
2023-03-21T07:15:41.562Z,6.64
2023-03-21T07:18:09.767Z,6.53
2023-03-21T07:20:38.741Z,6.52
2023-03-21T07:23:07.542Z,6.50
2023-03-21T07:25:36.201Z,6.47
2023-03-21T07:28:09.259Z,6.47
2023-03-21T07:30:42.733Z,6.51
2023-03-21T07:33:11.657Z,6.48
2023-03-21T07:35:40.450Z,6.41
2023-03-21T07:38:11.143Z,6.33
2023-03-21T07:40:39.526Z,6.32
2023-03-21T07:43:08.219Z,6.24
2023-03-21T07:45:42.765Z,6.14
2023-03-21T07:48:17.778Z,6.07
2023-03-21T07:50:46.715Z,5.97
2023-03-21T07:53:15.059Z,5.96
2023-03-21T07:55:43.681Z,6.02
2023-03-21T07:58:17.028Z,5.98
2023-03-21T08:00:45.698Z,6.02
2023-03-21T08:03:14.016Z,6.00
2023-03-21T08:05:47.051Z,6.04
2023-03-21T08:08:15.991Z,6.18
2023-03-21T08:10:44.613Z,6.21
2023-03-21T08:13:13.186Z,6.20
2023-03-21T08:15:42.578Z,6.26
2023-03-21T08:18:11.458Z,6.39
2023-03-21T08:20:42.038Z,6.50
2023-03-21T08:23:10.557Z,6.53
2023-03-21T08:25:39.869Z,6.55
2023-03-21T08:28:08.395Z,6.66
2023-03-21T08:30:36.778Z,6.75
2023-03-21T08:33:07.656Z,6.82
2023-03-21T08:35:46.895Z,6.89
2023-03-21T08:38:15.468Z,6.93
2023-03-21T08:40:43.912Z,6.91
2023-03-21T08:43:14.914Z,7.01
2023-03-21T08:45:43.740Z,7.12
2023-03-21T08:48:12.005Z,7.21
2023-03-21T08:50:41.652Z,7.34
2023-03-21T08:53:09.999Z,7.38
2023-03-21T08:55:39.383Z,7.37
2023-03-21T08:58:08.026Z,7.48
2023-03-21T09:00:36.909Z,7.61
2023-03-21T09:03:05.703Z,7.65
2023-03-21T09:05:34.138Z,7.66
2023-03-21T09:08:05.908Z,7.81
2023-03-21T09:10:34.125Z,7.93
2023-03-21T09:13:02.832Z,8.01
2023-03-21T09:15:32.056Z,8.16
2023-03-21T09:18:13.553Z,8.16
2023-03-21T09:20:47.505Z,8.19
2023-03-21T09:23:15.895Z,8.40
2023-03-21T09:25:45.542Z,8.56
2023-03-21T09:28:14.628Z,8.69
2023-03-21T09:30:42.781Z,8.76
2023-03-21T09:33:21.332Z,8.88
2023-03-21T09:35:52.125Z,9.14
2023-03-21T09:38:20.937Z,9.36
2023-03-21T09:41:10.090Z,9.64
2023-03-21T09:43:44.611Z,9.93
2023-03-21T09:46:35.831Z,10.13
2023-03-21T09:49:16.780Z,10.28
2023-03-21T09:51:49.057Z,10.35
2023-03-21T09:54:29.753Z,10.43
2023-03-21T09:56:59.591Z,10.40
2023-03-21T09:59:40.195Z,10.39
2023-03-21T10:02:38.964Z,10.51
2023-03-21T10:05:23.688Z,10.54
2023-03-21T10:07:59.177Z,10.45
2023-03-21T10:10:36.248Z,10.52
2023-03-21T10:13:33.363Z,10.62
2023-03-21T10:16:11.241Z,10.79
2023-03-21T10:18:39.477Z,10.93
2023-03-21T10:21:37.365Z,11.06
2023-03-21T10:24:05.209Z,11.19
2023-03-21T10:26:33.476Z,11.16
2023-03-21T10:29:02.193Z,11.06
2023-03-21T10:31:31.539Z,11.06
2023-03-21T10:34:10.291Z,11.21
2023-03-21T10:36:39.512Z,11.40
2023-03-21T10:39:41.756Z,11.50
2023-03-21T10:42:18.193Z,11.62
2023-03-21T10:44:47.222Z,11.80
2023-03-21T10:47:23.263Z,11.93
2023-03-21T10:50:09.170Z,12.02
2023-03-21T10:53:00.646Z,12.15
2023-03-21T10:55:35.054Z,12.23
2023-03-21T10:58:12.503Z,12.38
2023-03-21T11:00:43.518Z,12.48
2023-03-21T11:03:23.264Z,12.40
2023-03-21T11:06:18.052Z,12.30
2023-03-21T11:08:51.472Z,12.19
2023-03-21T11:11:27.931Z,12.21
2023-03-21T11:14:01.333Z,12.29
2023-03-21T11:16:39.012Z,12.43
2023-03-21T11:19:18.274Z,12.63
2023-03-21T11:21:46.529Z,12.67
2023-03-21T11:24:16.342Z,12.73
2023-03-21T11:26:47.014Z,12.84
2023-03-21T11:29:36.236Z,13.03
2023-03-21T11:32:26.360Z,13.11
2023-03-21T11:35:02.390Z,13.09
2023-03-21T11:37:37.104Z,13.13
2023-03-21T11:40:23.442Z,13.08
2023-03-21T11:42:58.946Z,13.16
2023-03-21T11:45:36.874Z,13.31
2023-03-21T11:48:12.836Z,13.49
2023-03-21T11:50:46.603Z,13.68
2023-03-21T11:53:32.694Z,13.74
2023-03-21T11:56:24.075Z,13.69
2023-03-21T11:59:05.047Z,13.60
2023-03-21T12:01:57.519Z,13.45
2023-03-21T12:04:27.368Z,13.59
2023-03-21T12:07:19.884Z,13.58
2023-03-21T12:10:18.047Z,13.55
2023-03-21T12:13:26.089Z,13.32
2023-03-21T12:16:26.533Z,13.23
2023-03-21T12:19:23.268Z,13.11
2023-03-21T12:22:04.318Z,13.18
2023-03-21T12:24:39.083Z,13.11
2023-03-21T12:27:42.165Z,13.05
2023-03-21T12:30:16.861Z,13.12
2023-03-21T12:33:27.230Z,13.16
2023-03-21T12:36:18.260Z,13.19
2023-03-21T12:39:09.796Z,13.20
2023-03-21T12:41:44.261Z,13.23
2023-03-21T12:44:16.400Z,13.31
2023-03-21T12:46:56.675Z,13.39
2023-03-21T12:49:31.509Z,13.44
2023-03-21T12:52:06.916Z,13.50
2023-03-21T12:54:46.414Z,13.46
2023-03-21T12:57:31.009Z,13.40
2023-03-21T13:00:30.721Z,13.48
2023-03-21T13:03:00.771Z,13.56
2023-03-21T13:05:32.226Z,13.57
2023-03-21T13:08:30.035Z,13.48
2023-03-21T13:11:00.181Z,13.49
2023-03-21T13:13:45.933Z,13.42
2023-03-21T13:16:22.110Z,13.35
2023-03-21T13:19:09.057Z,13.30
2023-03-21T13:21:43.632Z,13.28
2023-03-21T13:24:17.740Z,13.28
2023-03-21T13:26:57.688Z,13.28
2023-03-21T13:29:27.449Z,13.31
2023-03-21T13:31:57.932Z,13.21
2023-03-21T13:34:26.968Z,13.10
2023-03-21T13:37:00.947Z,13.02
2023-03-21T13:39:29.534Z,13.00
2023-03-21T13:42:03.031Z,12.89
2023-03-21T13:44:36.333Z,12.85
2023-03-21T13:47:06.253Z,12.85
2023-03-21T13:49:38.250Z,12.81
2023-03-21T13:52:11.202Z,12.64
2023-03-21T13:54:49.822Z,12.48
2023-03-21T13:57:27.086Z,12.40
2023-03-21T14:00:21.948Z,12.37
2023-03-21T14:03:08.225Z,12.31
2023-03-21T14:05:37.904Z,12.23
2023-03-21T14:08:19.305Z,12.20
2023-03-21T14:10:59.134Z,12.21
2023-03-21T14:13:28.513Z,12.23
2023-03-21T14:16:04.137Z,12.23
2023-03-21T14:18:53.501Z,12.18
2023-03-21T14:21:29.713Z,12.13
2023-03-21T14:24:12.746Z,12.12
2023-03-21T14:26:45.974Z,12.07
2023-03-21T14:29:26.102Z,12.02
2023-03-21T14:31:56.583Z,11.95
2023-03-21T14:34:27.259Z,11.91
2023-03-21T14:36:58.537Z,11.87
2023-03-21T14:39:31.473Z,11.81
2023-03-21T14:42:03.056Z,11.74
2023-03-21T14:44:53.340Z,11.67
2023-03-21T14:47:23.337Z,11.52
2023-03-21T14:49:51.717Z,11.48
2023-03-21T14:52:24.131Z,11.44
2023-03-21T14:54:52.771Z,11.36
2023-03-21T14:57:25.019Z,11.29
2023-03-21T14:59:54.244Z,11.22
2023-03-21T15:02:31.565Z,11.18
2023-03-21T15:05:10.056Z,11.15
2023-03-21T15:07:39.987Z,11.13
2023-03-21T15:10:16.601Z,11.08
2023-03-21T15:12:52.578Z,11.03
2023-03-21T15:15:24.296Z,10.99
2023-03-21T15:17:54.887Z,10.97
2023-03-21T15:20:26.478Z,10.93
2023-03-21T15:22:56.385Z,10.89
2023-03-21T15:25:29.231Z,10.84
2023-03-21T15:27:58.165Z,10.81
2023-03-21T15:30:30.714Z,10.80
2023-03-21T15:33:06.494Z,10.80
2023-03-21T15:35:40.625Z,10.81
2023-03-21T15:38:29.668Z,10.78
2023-03-21T15:41:20.482Z,10.76
2023-03-21T15:44:01.809Z,10.75
2023-03-21T15:46:43.869Z,10.71
2023-03-21T15:49:14.942Z,10.65
2023-03-21T15:52:01.862Z,10.59
2023-03-21T15:54:33.202Z,10.51
2023-03-21T15:57:04.847Z,10.42
2023-03-21T15:59:40.005Z,10.32
2023-03-21T16:02:20.360Z,10.22
2023-03-21T16:05:23.942Z,10.16
2023-03-21T16:07:52.232Z,10.10
2023-03-21T16:10:28.795Z,10.07
2023-03-21T16:12:58.335Z,10.04
2023-03-21T16:15:26.908Z,9.99
2023-03-21T16:18:05.402Z,9.96
2023-03-21T16:20:41.098Z,9.96
2023-03-21T16:23:12.044Z,9.93
2023-03-21T16:25:42.869Z,9.89
2023-03-21T16:28:17.470Z,9.84
2023-03-21T16:30:45.856Z,9.78
2023-03-21T16:33:14.733Z,9.73
2023-03-21T16:35:43.660Z,9.67
2023-03-21T16:38:12.603Z,9.62
2023-03-21T16:40:43.399Z,9.58
2023-03-21T16:43:11.988Z,9.56
2023-03-21T16:45:40.539Z,9.55
2023-03-21T16:48:16.127Z,9.55
2023-03-21T16:50:46.953Z,9.53
2023-03-21T16:53:17.082Z,9.47
2023-03-21T16:55:46.381Z,9.47
2023-03-21T16:58:22.009Z,9.46
2023-03-21T17:00:51.216Z,9.44
2023-03-21T17:03:19.666Z,9.40
2023-03-21T17:05:49.718Z,9.38
2023-03-21T17:08:19.636Z,9.37
2023-03-21T17:10:47.783Z,9.36
2023-03-21T17:13:16.137Z,9.36
2023-03-21T17:15:44.491Z,9.38
2023-03-21T17:18:16.504Z,9.39
2023-03-21T17:20:46.732Z,9.38
2023-03-21T17:23:15.666Z,9.36
2023-03-21T17:25:43.947Z,9.30
2023-03-21T17:28:12.108Z,9.25
2023-03-21T17:30:40.966Z,9.18
2023-03-21T17:33:10.834Z,9.14
2023-03-21T17:35:39.077Z,9.13
2023-03-21T17:38:07.286Z,9.14
2023-03-21T17:40:35.669Z,9.16
2023-03-21T17:43:13.605Z,9.16
2023-03-21T17:45:41.948Z,9.14
2023-03-21T17:48:10.743Z,9.15
2023-03-21T17:50:41.922Z,9.13
2023-03-21T17:53:10.497Z,9.10
2023-03-21T17:55:40.012Z,9.08
2023-03-21T17:58:08.308Z,9.06
2023-03-21T18:00:37.180Z,9.05
2023-03-21T18:03:06.167Z,9.01
2023-03-21T18:05:34.436Z,9.02
2023-03-21T18:08:10.354Z,9.03
2023-03-21T18:10:41.156Z,9.00
2023-03-21T18:13:09.882Z,8.96
2023-03-21T18:15:44.223Z,8.92
2023-03-21T18:18:14.262Z,8.88
2023-03-21T18:20:53.031Z,8.83
2023-03-21T18:23:22.304Z,8.78
2023-03-21T18:25:52.732Z,8.78
2023-03-21T18:28:27.671Z,8.77
2023-03-21T18:31:09.505Z,8.77
2023-03-21T18:33:40.691Z,8.77
2023-03-21T18:36:09.869Z,8.76
2023-03-21T18:38:39.826Z,8.73
2023-03-21T18:41:08.924Z,8.71
2023-03-21T18:44:01.133Z,8.66
2023-03-21T18:46:25.998Z,8.61
2023-03-21T18:48:55.252Z,8.56
2023-03-21T18:51:24.361Z,8.54
2023-03-21T18:53:53.318Z,8.51
2023-03-21T18:57:20.114Z,8.49
2023-03-21T18:59:12.542Z,8.45
2023-03-21T19:01:41.219Z,8.40
2023-03-21T19:04:21.301Z,8.34
2023-03-21T19:06:54.578Z,8.28
2023-03-21T19:09:29.466Z,8.23
2023-03-21T19:12:01.064Z,8.21
2023-03-21T19:14:29.542Z,8.20
2023-03-21T19:19:47.959Z,8.18
2023-03-21T19:22:16.919Z,8.16
2023-03-21T19:24:45.172Z,8.12
2023-03-21T19:27:14.864Z,8.07
2023-03-21T19:29:43.375Z,8.04
2023-03-21T19:32:12.940Z,8.01
2023-03-21T19:34:42.151Z,8.00
2023-03-21T19:37:10.292Z,7.98
2023-03-21T19:39:39.279Z,8.00
2023-03-21T19:42:16.818Z,8.01
2023-03-21T19:44:46.258Z,7.98
2023-03-21T19:47:15.508Z,7.95
2023-03-21T19:52:34.453Z,7.86
2023-03-21T19:55:02.601Z,7.84
2023-03-21T19:57:34.820Z,7.83
2023-03-21T20:00:04.537Z,7.82
2023-03-21T20:02:36.982Z,7.81
2023-03-21T20:05:08.977Z,7.79
2023-03-21T20:07:37.525Z,7.76
2023-03-21T20:10:08.642Z,7.70
2023-03-21T20:12:37.886Z,7.66
2023-03-21T20:15:17.288Z,7.63
2023-03-21T20:17:48.356Z,7.61
2023-03-21T20:20:18.438Z,7.59
2023-03-21T20:25:41.232Z,7.55
2023-03-21T20:28:16.202Z,7.50
2023-03-21T20:30:56.997Z,7.44
2023-03-21T20:33:25.832Z,7.39
2023-03-21T20:36:38.003Z,7.37
2023-03-21T20:38:54.519Z,7.34
2023-03-21T20:41:23.066Z,7.34
2023-03-21T20:44:34.705Z,7.35
2023-03-21T20:46:42.270Z,7.36
2023-03-21T20:49:21.230Z,7.36
2023-03-21T20:54:38.392Z,7.27
2023-03-21T20:57:07.857Z,7.24
2023-03-21T20:59:36.343Z,7.22
2023-03-21T21:02:09.545Z,7.22
2023-03-21T21:04:52.873Z,7.21
2023-03-21T21:07:27.714Z,7.20
2023-03-21T21:09:57.924Z,7.15
2023-03-21T21:12:27.823Z,7.10
2023-03-21T21:14:56.848Z,7.05
2023-03-21T21:18:03.876Z,6.98
2023-03-21T21:20:17.684Z,6.92
2023-03-21T21:22:58.415Z,6.90
2023-03-21T21:25:30.895Z,6.88
2023-03-21T21:27:59.073Z,6.87
2023-03-21T21:30:31.787Z,6.85
2023-03-21T21:33:01.178Z,6.82
2023-03-21T21:35:29.804Z,6.75
2023-03-21T21:37:59.476Z,6.71
2023-03-21T21:40:27.792Z,6.69
2023-03-21T21:43:03.479Z,6.67
2023-03-21T21:45:32.624Z,6.64
2023-03-21T21:48:00.920Z,6.61
2023-03-21T21:50:30.744Z,6.55
2023-03-21T21:53:03.999Z,6.50
2023-03-21T21:55:34.221Z,6.46
2023-03-21T21:58:04.087Z,6.42
2023-03-21T22:00:32.773Z,6.41
2023-03-21T22:03:01.588Z,6.41
2023-03-21T22:05:30.929Z,6.40
2023-03-21T22:08:04.437Z,6.38
2023-03-21T22:10:34.297Z,6.36
2023-03-21T22:13:02.506Z,6.34
2023-03-21T22:15:34.880Z,6.32
2023-03-21T22:18:04.193Z,6.35
2023-03-21T22:20:34.201Z,6.34
2023-03-21T22:23:02.599Z,6.33
2023-03-21T22:25:33.242Z,6.31
2023-03-21T22:28:02.511Z,6.28
2023-03-21T22:30:31.221Z,6.27
2023-03-21T22:33:09.349Z,6.27
2023-03-21T22:35:42.187Z,6.27
2023-03-21T22:38:10.505Z,6.30
2023-03-21T22:40:39.148Z,6.31
2023-03-21T22:43:09.007Z,6.30
2023-03-21T22:45:37.473Z,6.24
2023-03-21T22:48:06.450Z,6.23
2023-03-21T22:50:35.692Z,6.23
2023-03-21T22:53:04.075Z,6.26
2023-03-21T22:55:32.664Z,6.29
2023-03-21T22:58:01.083Z,6.32
2023-03-21T23:00:29.814Z,6.34
2023-03-21T23:02:59.747Z,6.35
2023-03-21T23:05:28.605Z,6.33
2023-03-21T23:07:59.804Z,6.31
2023-03-21T23:10:28.993Z,6.30
2023-03-21T23:12:57.276Z,6.29
2023-03-21T23:15:31.848Z,6.20
2023-03-21T23:18:00.120Z,6.15
2023-03-21T23:20:28.358Z,6.14
2023-03-21T23:22:58.786Z,6.15
2023-03-21T23:25:29.160Z,6.16
2023-03-21T23:27:57.505Z,6.15
2023-03-21T23:30:25.986Z,6.12
2023-03-21T23:32:54.244Z,6.10
2023-03-21T23:35:22.572Z,6.13
2023-03-21T23:37:52.884Z,6.13
2023-03-21T23:40:21.328Z,6.09
2023-03-21T23:42:49.706Z,6.09
2023-03-21T23:45:17.928Z,6.08
2023-03-21T23:47:47.668Z,6.08
2023-03-21T23:50:16.643Z,6.04
2023-03-21T23:52:50.142Z,6.01
2023-03-21T23:55:18.539Z,5.99
2023-03-21T23:57:46.898Z,5.96
